sensor_id;sensor_type;location;lat;lon;timestamp;P1;durP1;ratioP1;P2;durP2;ratioP2
10872;SDS011;34586;53.616;10.032;2023-04-27T00:02:09;5.50;;;2.70;;
10872;SDS011;34586;53.616;10.032;2023-04-27T00:04:35;4.57;;;2.80;;
10872;SDS011;34586;53.616;10.032;2023-04-27T00:07:01;8.33;;;2.93;;
10872;SDS011;34586;53.616;10.032;2023-04-27T00:09:29;5.37;;;2.90;;
10872;SDS011;34586;53.616;10.032;2023-04-27T00:11:55;4.40;;;2.67;;
10872;SDS011;34586;53.616;10.032;2023-04-27T00:14:21;4.77;;;2.70;;
10872;SDS011;34586;53.616;10.032;2023-04-27T00:16:47;4.00;;;2.53;;
10872;SDS011;34586;53.616;10.032;2023-04-27T00:19:12;5.67;;;2.63;;
10872;SDS011;34586;53.616;10.032;2023-04-27T00:21:39;4.67;;;2.67;;
10872;SDS011;34586;53.616;10.032;2023-04-27T00:24:06;7.23;;;2.67;;
10872;SDS011;34586;53.616;10.032;2023-04-27T00:26:31;7.40;;;2.90;;
10872;SDS011;34586;53.616;10.032;2023-04-27T00:28:57;6.20;;;3.60;;
10872;SDS011;34586;53.616;10.032;2023-04-27T00:31:22;8.33;;;3.20;;
10872;SDS011;34586;53.616;10.032;2023-04-27T00:33:51;7.60;;;2.57;;
10872;SDS011;34586;53.616;10.032;2023-04-27T00:36:16;4.90;;;2.70;;
10872;SDS011;34586;53.616;10.032;2023-04-27T00:38:42;7.90;;;2.93;;
10872;SDS011;34586;53.616;10.032;2023-04-27T00:41:07;5.27;;;2.43;;
10872;SDS011;34586;53.616;10.032;2023-04-27T00:43:40;6.87;;;2.77;;
10872;SDS011;34586;53.616;10.032;2023-04-27T00:46:10;5.67;;;2.83;;
10872;SDS011;34586;53.616;10.032;2023-04-27T00:48:38;6.20;;;3.00;;
10872;SDS011;34586;53.616;10.032;2023-04-27T00:51:04;6.23;;;2.60;;
10872;SDS011;34586;53.616;10.032;2023-04-27T00:53:30;7.03;;;2.90;;
10872;SDS011;34586;53.616;10.032;2023-04-27T00:55:57;5.77;;;3.00;;
10872;SDS011;34586;53.616;10.032;2023-04-27T00:58:23;3.93;;;2.90;;
10872;SDS011;34586;53.616;10.032;2023-04-27T01:00:49;5.60;;;2.60;;
10872;SDS011;34586;53.616;10.032;2023-04-27T01:03:15;4.03;;;2.83;;
10872;SDS011;34586;53.616;10.032;2023-04-27T01:05:41;4.53;;;2.90;;
10872;SDS011;34586;53.616;10.032;2023-04-27T01:08:08;7.33;;;3.20;;
10872;SDS011;34586;53.616;10.032;2023-04-27T01:10:34;6.37;;;3.63;;
10872;SDS011;34586;53.616;10.032;2023-04-27T01:13:01;5.80;;;3.20;;
10872;SDS011;34586;53.616;10.032;2023-04-27T01:15:27;8.57;;;3.30;;
10872;SDS011;34586;53.616;10.032;2023-04-27T01:17:57;6.93;;;2.97;;
10872;SDS011;34586;53.616;10.032;2023-04-27T01:20:26;5.70;;;3.03;;
10872;SDS011;34586;53.616;10.032;2023-04-27T01:22:55;5.83;;;3.23;;
10872;SDS011;34586;53.616;10.032;2023-04-27T01:25:21;5.03;;;3.03;;
10872;SDS011;34586;53.616;10.032;2023-04-27T01:27:48;5.53;;;3.27;;
10872;SDS011;34586;53.616;10.032;2023-04-27T01:30:14;11.37;;;3.87;;
10872;SDS011;34586;53.616;10.032;2023-04-27T01:32:39;7.37;;;3.53;;
10872;SDS011;34586;53.616;10.032;2023-04-27T01:35:06;10.50;;;3.70;;
10872;SDS011;34586;53.616;10.032;2023-04-27T01:37:31;6.07;;;3.40;;
10872;SDS011;34586;53.616;10.032;2023-04-27T01:39:59;8.33;;;3.30;;
10872;SDS011;34586;53.616;10.032;2023-04-27T01:42:24;7.33;;;3.37;;
10872;SDS011;34586;53.616;10.032;2023-04-27T01:44:50;6.93;;;3.43;;
10872;SDS011;34586;53.616;10.032;2023-04-27T01:47:16;6.63;;;3.70;;
10872;SDS011;34586;53.616;10.032;2023-04-27T01:49:42;10.17;;;3.97;;
10872;SDS011;34586;53.616;10.032;2023-04-27T01:52:08;9.60;;;3.77;;
10872;SDS011;34586;53.616;10.032;2023-04-27T01:54:33;5.07;;;3.40;;
10872;SDS011;34586;53.616;10.032;2023-04-27T01:57:00;4.67;;;3.53;;
10872;SDS011;34586;53.616;10.032;2023-04-27T01:59:26;10.30;;;4.10;;
10872;SDS011;34586;53.616;10.032;2023-04-27T02:01:52;6.43;;;3.50;;
10872;SDS011;34586;53.616;10.032;2023-04-27T02:04:18;5.80;;;3.37;;
10872;SDS011;34586;53.616;10.032;2023-04-27T02:06:45;8.03;;;3.40;;
10872;SDS011;34586;53.616;10.032;2023-04-27T02:09:11;8.10;;;4.03;;
10872;SDS011;34586;53.616;10.032;2023-04-27T02:11:37;6.70;;;3.50;;
10872;SDS011;34586;53.616;10.032;2023-04-27T02:14:03;5.53;;;3.37;;
10872;SDS011;34586;53.616;10.032;2023-04-27T02:16:29;6.37;;;3.93;;
10872;SDS011;34586;53.616;10.032;2023-04-27T02:18:55;5.00;;;3.50;;
10872;SDS011;34586;53.616;10.032;2023-04-27T02:21:21;6.00;;;3.60;;
10872;SDS011;34586;53.616;10.032;2023-04-27T02:23:47;5.37;;;3.23;;
10872;SDS011;34586;53.616;10.032;2023-04-27T02:26:18;5.60;;;3.50;;
10872;SDS011;34586;53.616;10.032;2023-04-27T02:28:47;8.73;;;3.33;;
10872;SDS011;34586;53.616;10.032;2023-04-27T02:31:13;5.17;;;3.37;;
10872;SDS011;34586;53.616;10.032;2023-04-27T02:33:42;5.10;;;3.03;;
10872;SDS011;34586;53.616;10.032;2023-04-27T02:36:07;6.20;;;2.80;;
10872;SDS011;34586;53.616;10.032;2023-04-27T02:38:34;5.80;;;3.30;;
10872;SDS011;34586;53.616;10.032;2023-04-27T02:40:59;6.07;;;2.93;;
10872;SDS011;34586;53.616;10.032;2023-04-27T02:43:25;4.97;;;2.80;;
10872;SDS011;34586;53.616;10.032;2023-04-27T02:45:51;5.10;;;3.30;;
10872;SDS011;34586;53.616;10.032;2023-04-27T02:48:16;5.67;;;3.17;;
10872;SDS011;34586;53.616;10.032;2023-04-27T02:50:42;4.10;;;3.27;;
10872;SDS011;34586;53.616;10.032;2023-04-27T02:53:09;5.77;;;3.67;;
10872;SDS011;34586;53.616;10.032;2023-04-27T02:55:35;8.90;;;3.30;;
10872;SDS011;34586;53.616;10.032;2023-04-27T02:58:02;6.57;;;3.30;;
10872;SDS011;34586;53.616;10.032;2023-04-27T03:00:27;6.63;;;3.00;;
10872;SDS011;34586;53.616;10.032;2023-04-27T03:02:55;4.23;;;2.87;;
10872;SDS011;34586;53.616;10.032;2023-04-27T03:05:21;5.43;;;3.33;;
10872;SDS011;34586;53.616;10.032;2023-04-27T03:07:52;5.63;;;3.40;;
10872;SDS011;34586;53.616;10.032;2023-04-27T03:10:18;4.97;;;3.10;;
10872;SDS011;34586;53.616;10.032;2023-04-27T03:12:44;7.53;;;3.03;;
10872;SDS011;34586;53.616;10.032;2023-04-27T03:15:09;6.17;;;3.03;;
10872;SDS011;34586;53.616;10.032;2023-04-27T03:17:35;3.83;;;3.17;;
10872;SDS011;34586;53.616;10.032;2023-04-27T03:20:01;7.13;;;3.10;;
10872;SDS011;34586;53.616;10.032;2023-04-27T03:22:28;3.00;;;2.40;;
10872;SDS011;34586;53.616;10.032;2023-04-27T03:24:55;6.97;;;3.13;;
10872;SDS011;34586;53.616;10.032;2023-04-27T03:27:21;5.03;;;2.67;;
10872;SDS011;34586;53.616;10.032;2023-04-27T03:29:46;4.13;;;2.90;;
10872;SDS011;34586;53.616;10.032;2023-04-27T03:32:16;5.50;;;2.73;;
10872;SDS011;34586;53.616;10.032;2023-04-27T03:34:42;6.07;;;3.20;;
10872;SDS011;34586;53.616;10.032;2023-04-27T03:37:08;5.00;;;2.93;;
10872;SDS011;34586;53.616;10.032;2023-04-27T03:39:33;5.63;;;2.93;;
10872;SDS011;34586;53.616;10.032;2023-04-27T03:41:59;5.07;;;2.90;;
10872;SDS011;34586;53.616;10.032;2023-04-27T03:44:26;5.67;;;2.80;;
10872;SDS011;34586;53.616;10.032;2023-04-27T03:46:52;7.43;;;3.40;;
10872;SDS011;34586;53.616;10.032;2023-04-27T03:49:17;3.87;;;2.80;;
10872;SDS011;34586;53.616;10.032;2023-04-27T03:51:43;4.13;;;2.90;;
10872;SDS011;34586;53.616;10.032;2023-04-27T03:54:08;4.87;;;2.87;;
10872;SDS011;34586;53.616;10.032;2023-04-27T03:56:34;5.90;;;2.70;;
10872;SDS011;34586;53.616;10.032;2023-04-27T03:59:01;6.57;;;3.07;;
10872;SDS011;34586;53.616;10.032;2023-04-27T04:01:28;5.20;;;3.27;;
10872;SDS011;34586;53.616;10.032;2023-04-27T04:03:54;4.50;;;3.17;;
10872;SDS011;34586;53.616;10.032;2023-04-27T04:06:20;6.27;;;3.17;;
10872;SDS011;34586;53.616;10.032;2023-04-27T04:08:46;4.27;;;3.87;;
10872;SDS011;34586;53.616;10.032;2023-04-27T04:11:11;8.90;;;3.50;;
10872;SDS011;34586;53.616;10.032;2023-04-27T04:13:37;14.33;;;4.17;;
10872;SDS011;34586;53.616;10.032;2023-04-27T04:16:06;4.63;;;3.40;;
10872;SDS011;34586;53.616;10.032;2023-04-27T04:18:33;7.27;;;3.17;;
10872;SDS011;34586;53.616;10.032;2023-04-27T04:20:59;5.87;;;3.40;;
10872;SDS011;34586;53.616;10.032;2023-04-27T04:23:26;5.47;;;3.27;;
10872;SDS011;34586;53.616;10.032;2023-04-27T04:25:52;6.17;;;3.70;;
10872;SDS011;34586;53.616;10.032;2023-04-27T04:28:20;4.30;;;3.60;;
10872;SDS011;34586;53.616;10.032;2023-04-27T04:30:47;5.60;;;3.63;;
10872;SDS011;34586;53.616;10.032;2023-04-27T04:33:13;4.80;;;3.40;;
10872;SDS011;34586;53.616;10.032;2023-04-27T04:35:39;3.67;;;3.20;;
10872;SDS011;34586;53.616;10.032;2023-04-27T04:38:05;6.27;;;3.23;;
10872;SDS011;34586;53.616;10.032;2023-04-27T04:40:31;6.43;;;3.70;;
10872;SDS011;34586;53.616;10.032;2023-04-27T04:42:57;6.90;;;4.00;;
10872;SDS011;34586;53.616;10.032;2023-04-27T04:45:22;4.13;;;3.57;;
10872;SDS011;34586;53.616;10.032;2023-04-27T04:47:49;6.03;;;3.43;;
10872;SDS011;34586;53.616;10.032;2023-04-27T04:50:15;4.53;;;3.47;;
10872;SDS011;34586;53.616;10.032;2023-04-27T04:52:41;5.10;;;3.27;;
10872;SDS011;34586;53.616;10.032;2023-04-27T04:55:06;6.73;;;3.60;;
10872;SDS011;34586;53.616;10.032;2023-04-27T04:57:32;5.20;;;3.73;;
10872;SDS011;34586;53.616;10.032;2023-04-27T04:59:58;6.30;;;3.53;;
10872;SDS011;34586;53.616;10.032;2023-04-27T05:02:24;10.10;;;3.97;;
10872;SDS011;34586;53.616;10.032;2023-04-27T05:04:49;7.17;;;4.00;;
10872;SDS011;34586;53.616;10.032;2023-04-27T05:07:18;6.30;;;3.83;;
10872;SDS011;34586;53.616;10.032;2023-04-27T05:09:43;8.27;;;3.93;;
10872;SDS011;34586;53.616;10.032;2023-04-27T05:12:09;6.93;;;4.03;;
10872;SDS011;34586;53.616;10.032;2023-04-27T05:14:35;7.53;;;4.37;;
10872;SDS011;34586;53.616;10.032;2023-04-27T05:17:00;6.53;;;4.63;;
10872;SDS011;34586;53.616;10.032;2023-04-27T05:19:29;5.63;;;4.03;;
10872;SDS011;34586;53.616;10.032;2023-04-27T05:21:57;9.33;;;3.70;;
10872;SDS011;34586;53.616;10.032;2023-04-27T05:24:24;7.57;;;4.37;;
10872;SDS011;34586;53.616;10.032;2023-04-27T05:26:50;9.13;;;3.83;;
10872;SDS011;34586;53.616;10.032;2023-04-27T05:29:16;6.63;;;3.97;;
10872;SDS011;34586;53.616;10.032;2023-04-27T05:31:42;10.33;;;5.00;;
10872;SDS011;34586;53.616;10.032;2023-04-27T05:34:07;7.80;;;4.10;;
10872;SDS011;34586;53.616;10.032;2023-04-27T05:36:34;6.90;;;4.33;;
10872;SDS011;34586;53.616;10.032;2023-04-27T05:39:00;10.40;;;4.53;;
10872;SDS011;34586;53.616;10.032;2023-04-27T05:41:26;6.47;;;3.70;;
10872;SDS011;34586;53.616;10.032;2023-04-27T05:43:51;6.07;;;4.43;;
10872;SDS011;34586;53.616;10.032;2023-04-27T05:46:17;8.33;;;4.33;;
10872;SDS011;34586;53.616;10.032;2023-04-27T05:48:45;9.90;;;4.70;;
10872;SDS011;34586;53.616;10.032;2023-04-27T05:51:11;8.17;;;4.23;;
10872;SDS011;34586;53.616;10.032;2023-04-27T05:53:37;6.73;;;4.13;;
10872;SDS011;34586;53.616;10.032;2023-04-27T05:56:03;7.13;;;3.97;;
10872;SDS011;34586;53.616;10.032;2023-04-27T05:58:31;8.70;;;4.57;;
10872;SDS011;34586;53.616;10.032;2023-04-27T06:00:57;7.57;;;3.93;;
10872;SDS011;34586;53.616;10.032;2023-04-27T06:03:24;5.70;;;3.67;;
10872;SDS011;34586;53.616;10.032;2023-04-27T06:05:57;7.90;;;4.10;;
10872;SDS011;34586;53.616;10.032;2023-04-27T06:08:25;8.57;;;3.87;;
10872;SDS011;34586;53.616;10.032;2023-04-27T06:10:51;7.13;;;4.70;;
10872;SDS011;34586;53.616;10.032;2023-04-27T06:13:18;6.43;;;4.40;;
10872;SDS011;34586;53.616;10.032;2023-04-27T06:15:45;7.83;;;4.10;;
10872;SDS011;34586;53.616;10.032;2023-04-27T06:18:11;5.97;;;3.90;;
10872;SDS011;34586;53.616;10.032;2023-04-27T06:20:37;5.40;;;3.17;;
10872;SDS011;34586;53.616;10.032;2023-04-27T06:23:02;4.93;;;3.03;;
10872;SDS011;34586;53.616;10.032;2023-04-27T06:25:28;4.90;;;2.83;;
10872;SDS011;34586;53.616;10.032;2023-04-27T06:27:55;3.87;;;2.80;;
10872;SDS011;34586;53.616;10.032;2023-04-27T06:30:22;5.27;;;2.77;;
10872;SDS011;34586;53.616;10.032;2023-04-27T06:32:48;6.37;;;3.30;;
10872;SDS011;34586;53.616;10.032;2023-04-27T06:35:15;6.80;;;2.50;;
10872;SDS011;34586;53.616;10.032;2023-04-27T06:37:41;6.47;;;2.70;;
10872;SDS011;34586;53.616;10.032;2023-04-27T06:40:07;4.50;;;2.50;;
10872;SDS011;34586;53.616;10.032;2023-04-27T06:42:33;6.33;;;2.63;;
10872;SDS011;34586;53.616;10.032;2023-04-27T06:44:59;4.27;;;2.20;;
10872;SDS011;34586;53.616;10.032;2023-04-27T06:47:25;5.03;;;2.40;;
10872;SDS011;34586;53.616;10.032;2023-04-27T06:49:50;6.13;;;2.40;;
10872;SDS011;34586;53.616;10.032;2023-04-27T06:52:16;5.23;;;2.30;;
10872;SDS011;34586;53.616;10.032;2023-04-27T06:54:42;3.67;;;2.07;;
10872;SDS011;34586;53.616;10.032;2023-04-27T06:57:07;3.50;;;2.23;;
10872;SDS011;34586;53.616;10.032;2023-04-27T06:59:33;3.70;;;2.13;;
10872;SDS011;34586;53.616;10.032;2023-04-27T07:01:59;4.30;;;2.00;;
10872;SDS011;34586;53.616;10.032;2023-04-27T07:04:25;3.60;;;2.13;;
10872;SDS011;34586;53.616;10.032;2023-04-27T07:06:52;4.37;;;2.10;;
10872;SDS011;34586;53.616;10.032;2023-04-27T07:09:17;4.00;;;1.90;;
10872;SDS011;34586;53.616;10.032;2023-04-27T07:11:45;4.23;;;1.90;;
10872;SDS011;34586;53.616;10.032;2023-04-27T07:14:10;9.73;;;2.20;;
10872;SDS011;34586;53.616;10.032;2023-04-27T07:16:36;4.40;;;2.07;;
10872;SDS011;34586;53.616;10.032;2023-04-27T07:19:01;4.10;;;2.00;;
10872;SDS011;34586;53.616;10.032;2023-04-27T07:21:27;5.63;;;1.87;;
10872;SDS011;34586;53.616;10.032;2023-04-27T07:23:54;5.00;;;2.17;;
10872;SDS011;34586;53.616;10.032;2023-04-27T07:26:20;2.00;;;1.73;;
10872;SDS011;34586;53.616;10.032;2023-04-27T07:28:48;4.07;;;1.53;;
10872;SDS011;34586;53.616;10.032;2023-04-27T07:31:14;4.50;;;1.20;;
10872;SDS011;34586;53.616;10.032;2023-04-27T07:33:41;4.37;;;1.50;;
10872;SDS011;34586;53.616;10.032;2023-04-27T07:36:06;4.10;;;1.53;;
10872;SDS011;34586;53.616;10.032;2023-04-27T07:38:32;5.60;;;1.40;;
10872;SDS011;34586;53.616;10.032;2023-04-27T07:40:59;3.17;;;1.30;;
10872;SDS011;34586;53.616;10.032;2023-04-27T07:43:25;5.40;;;1.90;;
10872;SDS011;34586;53.616;10.032;2023-04-27T07:45:51;2.17;;;1.43;;
10872;SDS011;34586;53.616;10.032;2023-04-27T07:48:18;3.57;;;1.60;;
10872;SDS011;34586;53.616;10.032;2023-04-27T07:50:44;5.00;;;1.53;;
10872;SDS011;34586;53.616;10.032;2023-04-27T07:53:10;3.87;;;1.70;;
10872;SDS011;34586;53.616;10.032;2023-04-27T07:55:36;5.63;;;2.00;;
10872;SDS011;34586;53.616;10.032;2023-04-27T07:58:02;4.20;;;1.80;;
10872;SDS011;34586;53.616;10.032;2023-04-27T08:00:28;4.70;;;1.40;;
10872;SDS011;34586;53.616;10.032;2023-04-27T08:02:54;4.83;;;1.60;;
10872;SDS011;34586;53.616;10.032;2023-04-27T08:05:20;2.70;;;1.87;;
10872;SDS011;34586;53.616;10.032;2023-04-27T08:07:45;3.20;;;1.70;;
10872;SDS011;34586;53.616;10.032;2023-04-27T08:10:11;2.80;;;1.70;;
10872;SDS011;34586;53.616;10.032;2023-04-27T08:12:37;2.80;;;1.70;;
10872;SDS011;34586;53.616;10.032;2023-04-27T08:15:06;3.70;;;1.77;;
10872;SDS011;34586;53.616;10.032;2023-04-27T08:17:32;3.53;;;1.77;;
10872;SDS011;34586;53.616;10.032;2023-04-27T08:19:59;3.03;;;1.37;;
10872;SDS011;34586;53.616;10.032;2023-04-27T08:22:24;4.03;;;1.60;;
10872;SDS011;34586;53.616;10.032;2023-04-27T08:24:50;4.57;;;1.40;;
10872;SDS011;34586;53.616;10.032;2023-04-27T08:27:15;2.87;;;1.40;;
10872;SDS011;34586;53.616;10.032;2023-04-27T08:29:47;3.90;;;1.60;;
10872;SDS011;34586;53.616;10.032;2023-04-27T08:32:13;5.67;;;1.53;;
10872;SDS011;34586;53.616;10.032;2023-04-27T08:34:40;3.13;;;1.20;;
10872;SDS011;34586;53.616;10.032;2023-04-27T08:37:06;2.87;;;1.20;;
10872;SDS011;34586;53.616;10.032;2023-04-27T08:39:32;4.63;;;1.50;;
10872;SDS011;34586;53.616;10.032;2023-04-27T08:41:58;3.67;;;1.30;;
10872;SDS011;34586;53.616;10.032;2023-04-27T08:44:23;1.77;;;1.27;;
10872;SDS011;34586;53.616;10.032;2023-04-27T08:46:49;3.80;;;1.30;;
10872;SDS011;34586;53.616;10.032;2023-04-27T08:49:15;1.83;;;1.30;;
10872;SDS011;34586;53.616;10.032;2023-04-27T08:51:41;3.43;;;1.27;;
10872;SDS011;34586;53.616;10.032;2023-04-27T08:54:07;5.63;;;1.60;;
10872;SDS011;34586;53.616;10.032;2023-04-27T08:56:33;2.20;;;1.40;;
10872;SDS011;34586;53.616;10.032;2023-04-27T08:59:00;4.20;;;1.73;;
10872;SDS011;34586;53.616;10.032;2023-04-27T09:01:28;3.37;;;1.77;;
10872;SDS011;34586;53.616;10.032;2023-04-27T09:03:55;3.00;;;1.40;;
10872;SDS011;34586;53.616;10.032;2023-04-27T09:06:31;2.90;;;1.30;;
10872;SDS011;34586;53.616;10.032;2023-04-27T09:08:58;2.03;;;1.50;;
10872;SDS011;34586;53.616;10.032;2023-04-27T09:11:33;2.63;;;1.00;;
10872;SDS011;34586;53.616;10.032;2023-04-27T09:14:13;4.17;;;1.27;;
10872;SDS011;34586;53.616;10.032;2023-04-27T09:16:43;2.40;;;1.20;;
10872;SDS011;34586;53.616;10.032;2023-04-27T09:19:08;3.10;;;1.40;;
10872;SDS011;34586;53.616;10.032;2023-04-27T09:21:34;3.00;;;1.57;;
10872;SDS011;34586;53.616;10.032;2023-04-27T09:24:09;3.17;;;1.23;;
10872;SDS011;34586;53.616;10.032;2023-04-27T09:26:36;2.97;;;1.63;;
10872;SDS011;34586;53.616;10.032;2023-04-27T09:29:02;3.10;;;1.30;;
10872;SDS011;34586;53.616;10.032;2023-04-27T09:31:31;1.77;;;1.37;;
10872;SDS011;34586;53.616;10.032;2023-04-27T09:33:57;2.80;;;1.37;;
10872;SDS011;34586;53.616;10.032;2023-04-27T09:36:23;2.70;;;1.50;;
10872;SDS011;34586;53.616;10.032;2023-04-27T09:38:50;1.70;;;1.50;;
10872;SDS011;34586;53.616;10.032;2023-04-27T09:41:16;1.50;;;1.30;;
10872;SDS011;34586;53.616;10.032;2023-04-27T09:43:43;6.97;;;1.60;;
10872;SDS011;34586;53.616;10.032;2023-04-27T09:46:10;2.73;;;1.40;;
10872;SDS011;34586;53.616;10.032;2023-04-27T09:48:41;5.27;;;1.63;;
10872;SDS011;34586;53.616;10.032;2023-04-27T09:51:06;0.90;;;0.90;;
10872;SDS011;34586;53.616;10.032;2023-04-27T09:53:35;2.40;;;1.10;;
10872;SDS011;34586;53.616;10.032;2023-04-27T10:01:53;2.40;;;1.53;;
10872;SDS011;34586;53.616;10.032;2023-04-27T10:06:59;2.20;;;1.00;;
10872;SDS011;34586;53.616;10.032;2023-04-27T10:09:27;1.47;;;0.90;;
10872;SDS011;34586;53.616;10.032;2023-04-27T10:12:12;2.63;;;1.60;;
10872;SDS011;34586;53.616;10.032;2023-04-27T10:14:46;2.27;;;1.30;;
10872;SDS011;34586;53.616;10.032;2023-04-27T10:17:12;2.73;;;1.33;;
10872;SDS011;34586;53.616;10.032;2023-04-27T10:19:38;2.07;;;1.37;;
10872;SDS011;34586;53.616;10.032;2023-04-27T10:22:03;2.37;;;1.20;;
10872;SDS011;34586;53.616;10.032;2023-04-27T10:27:08;2.80;;;1.30;;
10872;SDS011;34586;53.616;10.032;2023-04-27T10:29:44;2.40;;;1.10;;
10872;SDS011;34586;53.616;10.032;2023-04-27T10:34:44;3.50;;;1.10;;
10872;SDS011;34586;53.616;10.032;2023-04-27T10:37:12;2.70;;;1.40;;
10872;SDS011;34586;53.616;10.032;2023-04-27T10:39:42;3.50;;;1.10;;
10872;SDS011;34586;53.616;10.032;2023-04-27T10:42:08;1.97;;;0.90;;
10872;SDS011;34586;53.616;10.032;2023-04-27T10:44:35;2.20;;;0.93;;
10872;SDS011;34586;53.616;10.032;2023-04-27T10:49:38;2.43;;;1.73;;
10872;SDS011;34586;53.616;10.032;2023-04-27T10:52:06;2.33;;;1.50;;
10872;SDS011;34586;53.616;10.032;2023-04-27T10:54:33;4.07;;;1.40;;
10872;SDS011;34586;53.616;10.032;2023-04-27T10:57:06;6.00;;;1.57;;
10872;SDS011;34586;53.616;10.032;2023-04-27T10:59:34;2.43;;;1.50;;
10872;SDS011;34586;53.616;10.032;2023-04-27T11:02:11;2.73;;;1.67;;
10872;SDS011;34586;53.616;10.032;2023-04-27T11:04:37;2.97;;;1.70;;
10872;SDS011;34586;53.616;10.032;2023-04-27T11:07:04;4.47;;;2.00;;
10872;SDS011;34586;53.616;10.032;2023-04-27T11:09:32;1.73;;;1.40;;
10872;SDS011;34586;53.616;10.032;2023-04-27T11:12:02;4.30;;;2.00;;
10872;SDS011;34586;53.616;10.032;2023-04-27T11:14:31;1.40;;;1.13;;
10872;SDS011;34586;53.616;10.032;2023-04-27T11:16:56;3.80;;;1.75;;
10872;SDS011;34586;53.616;10.032;2023-04-27T11:19:22;2.77;;;1.73;;
10872;SDS011;34586;53.616;10.032;2023-04-27T11:21:48;3.77;;;2.07;;
10872;SDS011;34586;53.616;10.032;2023-04-27T11:24:19;4.70;;;2.20;;
10872;SDS011;34586;53.616;10.032;2023-04-27T11:26:50;4.83;;;2.07;;
10872;SDS011;34586;53.616;10.032;2023-04-27T11:29:17;2.23;;;1.93;;
10872;SDS011;34586;53.616;10.032;2023-04-27T11:31:46;2.77;;;1.50;;
10872;SDS011;34586;53.616;10.032;2023-04-27T11:34:19;2.73;;;1.60;;
10872;SDS011;34586;53.616;10.032;2023-04-27T11:36:59;4.30;;;1.70;;
10872;SDS011;34586;53.616;10.032;2023-04-27T11:39:25;3.60;;;1.70;;
10872;SDS011;34586;53.616;10.032;2023-04-27T11:41:53;2.43;;;1.80;;
10872;SDS011;34586;53.616;10.032;2023-04-27T11:44:23;5.97;;;1.57;;
10872;SDS011;34586;53.616;10.032;2023-04-27T11:46:50;2.87;;;1.20;;
10872;SDS011;34586;53.616;10.032;2023-04-27T11:49:17;2.73;;;1.30;;
10872;SDS011;34586;53.616;10.032;2023-04-27T11:51:42;2.20;;;1.67;;
10872;SDS011;34586;53.616;10.032;2023-04-27T11:54:10;2.60;;;1.67;;
10872;SDS011;34586;53.616;10.032;2023-04-27T11:56:37;3.40;;;1.30;;
10872;SDS011;34586;53.616;10.032;2023-04-27T11:59:05;2.93;;;1.33;;
10872;SDS011;34586;53.616;10.032;2023-04-27T12:01:45;4.50;;;1.37;;
10872;SDS011;34586;53.616;10.032;2023-04-27T12:04:11;2.30;;;1.60;;
10872;SDS011;34586;53.616;10.032;2023-04-27T12:06:38;1.87;;;1.60;;
10872;SDS011;34586;53.616;10.032;2023-04-27T12:09:04;3.93;;;1.67;;
10872;SDS011;34586;53.616;10.032;2023-04-27T12:11:30;3.33;;;1.27;;
10872;SDS011;34586;53.616;10.032;2023-04-27T12:13:56;2.93;;;1.50;;
10872;SDS011;34586;53.616;10.032;2023-04-27T12:16:22;5.07;;;2.03;;
10872;SDS011;34586;53.616;10.032;2023-04-27T12:18:51;4.40;;;1.90;;
10872;SDS011;34586;53.616;10.032;2023-04-27T12:21:16;2.33;;;1.47;;
10872;SDS011;34586;53.616;10.032;2023-04-27T12:23:43;1.77;;;1.60;;
10872;SDS011;34586;53.616;10.032;2023-04-27T12:26:09;5.73;;;1.87;;
10872;SDS011;34586;53.616;10.032;2023-04-27T12:28:36;4.63;;;1.80;;
10872;SDS011;34586;53.616;10.032;2023-04-27T12:31:02;2.47;;;1.50;;
10872;SDS011;34586;53.616;10.032;2023-04-27T12:33:28;3.03;;;1.70;;
10872;SDS011;34586;53.616;10.032;2023-04-27T12:35:54;4.17;;;1.70;;
10872;SDS011;34586;53.616;10.032;2023-04-27T12:38:20;2.80;;;1.57;;
10872;SDS011;34586;53.616;10.032;2023-04-27T12:40:46;3.67;;;1.40;;
10872;SDS011;34586;53.616;10.032;2023-04-27T12:43:12;4.00;;;1.67;;
10872;SDS011;34586;53.616;10.032;2023-04-27T12:45:39;5.73;;;1.57;;
10872;SDS011;34586;53.616;10.032;2023-04-27T12:48:05;3.17;;;1.53;;
10872;SDS011;34586;53.616;10.032;2023-04-27T12:50:31;2.30;;;2.00;;
10872;SDS011;34586;53.616;10.032;2023-04-27T12:52:57;3.27;;;1.67;;
10872;SDS011;34586;53.616;10.032;2023-04-27T12:55:24;3.33;;;1.70;;
10872;SDS011;34586;53.616;10.032;2023-04-27T12:57:50;2.63;;;1.73;;
10872;SDS011;34586;53.616;10.032;2023-04-27T13:00:16;2.00;;;1.80;;
10872;SDS011;34586;53.616;10.032;2023-04-27T13:02:42;2.63;;;2.03;;
10872;SDS011;34586;53.616;10.032;2023-04-27T13:05:08;2.33;;;1.67;;
10872;SDS011;34586;53.616;10.032;2023-04-27T13:07:35;3.33;;;1.70;;
10872;SDS011;34586;53.616;10.032;2023-04-27T13:10:01;2.50;;;1.73;;
10872;SDS011;34586;53.616;10.032;2023-04-27T13:12:27;2.13;;;1.67;;
10872;SDS011;34586;53.616;10.032;2023-04-27T13:14:53;3.93;;;1.93;;
10872;SDS011;34586;53.616;10.032;2023-04-27T13:17:20;8.00;;;2.10;;
10872;SDS011;34586;53.616;10.032;2023-04-27T13:19:46;3.00;;;1.87;;
10872;SDS011;34586;53.616;10.032;2023-04-27T13:22:11;3.17;;;1.90;;
10872;SDS011;34586;53.616;10.032;2023-04-27T13:24:37;2.53;;;2.03;;
10872;SDS011;34586;53.616;10.032;2023-04-27T13:27:02;4.57;;;2.27;;
10872;SDS011;34586;53.616;10.032;2023-04-27T13:29:29;4.53;;;2.90;;
10872;SDS011;34586;53.616;10.032;2023-04-27T13:31:54;8.13;;;3.70;;
10872;SDS011;34586;53.616;10.032;2023-04-27T13:34:21;5.03;;;3.20;;
10872;SDS011;34586;53.616;10.032;2023-04-27T13:36:47;6.73;;;3.17;;
10872;SDS011;34586;53.616;10.032;2023-04-27T13:39:13;4.53;;;3.70;;
10872;SDS011;34586;53.616;10.032;2023-04-27T13:41:40;4.23;;;3.20;;
10872;SDS011;34586;53.616;10.032;2023-04-27T13:44:06;5.37;;;4.00;;
10872;SDS011;34586;53.616;10.032;2023-04-27T13:46:31;5.37;;;2.93;;
10872;SDS011;34586;53.616;10.032;2023-04-27T13:48:57;5.27;;;3.30;;
10872;SDS011;34586;53.616;10.032;2023-04-27T13:51:23;4.50;;;3.13;;
10872;SDS011;34586;53.616;10.032;2023-04-27T13:53:49;3.73;;;3.20;;
10872;SDS011;34586;53.616;10.032;2023-04-27T13:56:15;3.97;;;3.33;;
10872;SDS011;34586;53.616;10.032;2023-04-27T13:58:40;3.67;;;3.00;;
10872;SDS011;34586;53.616;10.032;2023-04-27T14:01:06;5.43;;;3.07;;
10872;SDS011;34586;53.616;10.032;2023-04-27T14:03:32;3.63;;;2.80;;
10872;SDS011;34586;53.616;10.032;2023-04-27T14:05:59;5.07;;;3.27;;
10872;SDS011;34586;53.616;10.032;2023-04-27T14:08:25;4.97;;;2.57;;
10872;SDS011;34586;53.616;10.032;2023-04-27T14:10:51;3.63;;;2.40;;
10872;SDS011;34586;53.616;10.032;2023-04-27T14:13:17;2.07;;;1.90;;
10872;SDS011;34586;53.616;10.032;2023-04-27T14:15:43;4.57;;;2.20;;
10872;SDS011;34586;53.616;10.032;2023-04-27T14:18:09;2.40;;;2.07;;
10872;SDS011;34586;53.616;10.032;2023-04-27T14:20:36;4.07;;;2.20;;
10872;SDS011;34586;53.616;10.032;2023-04-27T14:23:03;3.93;;;2.20;;
10872;SDS011;34586;53.616;10.032;2023-04-27T14:25:30;2.60;;;1.80;;
10872;SDS011;34586;53.616;10.032;2023-04-27T14:27:59;4.10;;;1.93;;
10872;SDS011;34586;53.616;10.032;2023-04-27T14:30:26;2.87;;;2.00;;
10872;SDS011;34586;53.616;10.032;2023-04-27T14:32:52;3.90;;;1.90;;
10872;SDS011;34586;53.616;10.032;2023-04-27T14:35:20;4.30;;;1.80;;
10872;SDS011;34586;53.616;10.032;2023-04-27T14:37:47;2.47;;;1.77;;
10872;SDS011;34586;53.616;10.032;2023-04-27T14:40:13;5.53;;;2.27;;
10872;SDS011;34586;53.616;10.032;2023-04-27T14:42:40;2.23;;;1.60;;
10872;SDS011;34586;53.616;10.032;2023-04-27T14:45:06;4.17;;;2.33;;
10872;SDS011;34586;53.616;10.032;2023-04-27T14:47:32;3.03;;;2.00;;